createdAt,value
2018-02-14T00:01:43.691Z,10.30
2018-02-14T00:04:11.310Z,11.40
2018-02-14T00:06:38.953Z,5.20
2018-02-14T00:09:06.526Z,7.53
2018-02-14T00:11:34.223Z,8.10
2018-02-14T00:14:01.826Z,8.17
2018-02-14T00:16:29.424Z,8.83
2018-02-14T00:18:57.106Z,6.73
2018-02-14T00:21:24.698Z,9.83
2018-02-14T00:23:53.053Z,7.67
2018-02-14T00:26:20.711Z,24.87
2018-02-14T00:28:48.408Z,10.13
2018-02-14T00:31:16.022Z,10.20
2018-02-14T00:33:43.699Z,12.93
2018-02-14T00:36:11.402Z,8.87
2018-02-14T00:38:38.995Z,9.77
2018-02-14T00:41:06.584Z,12.23
2018-02-14T00:43:34.299Z,11.27
2018-02-14T00:46:01.977Z,10.30
2018-02-14T00:48:29.653Z,11.43
2018-02-14T00:50:57.342Z,7.80
2018-02-14T00:53:24.994Z,7.77
2018-02-14T00:55:52.671Z,10.53
2018-02-14T00:58:20.355Z,7.53
2018-02-14T01:00:47.980Z,6.40
2018-02-14T01:03:15.558Z,6.20
2018-02-14T01:05:43.186Z,8.00
2018-02-14T01:08:10.778Z,12.37
2018-02-14T01:10:38.458Z,11.00
2018-02-14T01:13:06.057Z,7.37
2018-02-14T01:15:33.730Z,7.53
2018-02-14T01:18:01.361Z,8.57
2018-02-14T01:20:34.885Z,7.70
2018-02-14T01:23:02.498Z,6.00
2018-02-14T01:25:30.099Z,5.83
2018-02-14T01:27:57.674Z,6.03
2018-02-14T01:30:26.268Z,8.53
2018-02-14T01:32:53.939Z,10.30
2018-02-14T01:35:21.558Z,7.90
2018-02-14T01:37:49.228Z,6.90
2018-02-14T01:40:16.862Z,6.70
2018-02-14T01:42:44.530Z,12.93
2018-02-14T01:45:12.136Z,6.93
2018-02-14T01:47:39.734Z,6.63
2018-02-14T01:50:07.420Z,11.70
2018-02-14T01:52:35.040Z,9.80
2018-02-14T01:55:02.670Z,8.73
2018-02-14T01:57:30.341Z,10.87
2018-02-14T01:59:57.925Z,9.50
2018-02-14T02:02:25.595Z,6.60
2018-02-14T02:04:53.192Z,9.80
2018-02-14T02:07:20.768Z,11.93
2018-02-14T02:09:48.379Z,12.50
2018-02-14T02:12:16.031Z,10.07
2018-02-14T02:14:43.723Z,11.20
2018-02-14T02:17:11.392Z,12.63
2018-02-14T02:19:39.063Z,18.47
2018-02-14T02:22:06.671Z,8.90
2018-02-14T02:24:34.358Z,15.50
2018-02-14T02:27:01.958Z,7.63
2018-02-14T02:29:29.585Z,13.90
2018-02-14T02:31:57.238Z,10.40
2018-02-14T02:34:24.840Z,9.83
2018-02-14T02:36:52.439Z,14.13
2018-02-14T02:39:31.791Z,10.20
2018-02-14T02:41:59.449Z,14.47
2018-02-14T02:44:27.123Z,8.33
2018-02-14T02:46:54.803Z,9.23
2018-02-14T02:49:22.458Z,8.60
2018-02-14T02:51:50.070Z,11.27
2018-02-14T02:54:17.734Z,11.03
2018-02-14T02:56:45.357Z,18.60
2018-02-14T02:59:12.945Z,10.87
2018-02-14T03:01:40.544Z,9.73
2018-02-14T03:04:08.211Z,13.53
2018-02-14T03:06:35.814Z,13.83
2018-02-14T03:09:03.414Z,9.20
2018-02-14T03:11:31.029Z,12.50
2018-02-14T03:13:58.620Z,9.83
2018-02-14T03:16:26.280Z,14.80
2018-02-14T03:18:53.903Z,9.33
2018-02-14T03:21:21.494Z,14.27
2018-02-14T03:23:49.154Z,17.93
2018-02-14T03:26:16.791Z,13.13
2018-02-14T03:28:44.381Z,12.03
2018-02-14T03:31:11.974Z,12.40
2018-02-14T03:33:39.552Z,15.57
2018-02-14T03:36:07.159Z,11.80
2018-02-14T03:38:34.829Z,14.30
2018-02-14T03:41:02.535Z,9.97
2018-02-14T03:43:30.206Z,9.37
2018-02-14T03:45:57.809Z,15.87
2018-02-14T03:48:25.474Z,12.27
2018-02-14T03:50:53.167Z,12.70
2018-02-14T03:53:20.767Z,14.17
2018-02-14T03:55:48.379Z,17.27
2018-02-14T03:58:16.047Z,14.00
2018-02-14T04:00:43.728Z,16.43
2018-02-14T04:03:11.394Z,13.20
2018-02-14T04:05:39.004Z,16.40
2018-02-14T04:08:06.594Z,18.10
2018-02-14T04:10:34.218Z,16.37
2018-02-14T04:13:01.833Z,15.13
2018-02-14T04:15:29.440Z,18.53
2018-02-14T04:17:57.017Z,16.57
2018-02-14T04:20:24.619Z,17.37
2018-02-14T04:22:52.278Z,16.07
2018-02-14T04:25:19.975Z,17.43
2018-02-14T04:27:47.587Z,14.00
2018-02-14T04:30:27.092Z,14.30
2018-02-14T04:32:54.765Z,14.53
2018-02-14T04:35:22.388Z,11.83
2018-02-14T04:37:49.971Z,18.50
2018-02-14T04:40:17.581Z,15.10
2018-02-14T04:42:45.174Z,13.03
2018-02-14T04:45:12.834Z,18.40
2018-02-14T04:47:40.498Z,13.13
2018-02-14T04:50:08.119Z,13.33
2018-02-14T04:52:35.890Z,17.77
2018-02-14T04:55:03.492Z,21.00
2018-02-14T04:57:31.208Z,18.73
2018-02-14T04:59:58.801Z,16.43
2018-02-14T05:02:26.428Z,13.87
2018-02-14T05:04:54.037Z,22.33
2018-02-14T05:07:21.700Z,13.27
2018-02-14T05:09:49.318Z,15.00
2018-02-14T05:12:16.949Z,20.90
2018-02-14T05:14:44.623Z,16.77
2018-02-14T05:17:12.239Z,21.03
2018-02-14T05:19:39.828Z,16.70
2018-02-14T05:22:07.406Z,19.80
2018-02-14T05:24:35.006Z,18.90
2018-02-14T05:27:02.588Z,16.47
2018-02-14T05:29:30.300Z,12.50
2018-02-14T05:31:57.971Z,17.60
2018-02-14T05:34:25.602Z,14.77
2018-02-14T05:36:53.200Z,16.90
2018-02-14T05:39:20.797Z,16.90
2018-02-14T05:41:48.374Z,15.67
2018-02-14T05:44:15.990Z,12.70
2018-02-14T05:46:43.590Z,17.60
2018-02-14T05:49:11.190Z,23.57
2018-02-14T05:51:38.778Z,14.93
2018-02-14T05:54:06.379Z,15.80
2018-02-14T05:56:33.982Z,12.40
2018-02-14T05:59:01.626Z,23.70
2018-02-14T06:01:29.339Z,14.83
2018-02-14T06:03:56.989Z,20.83
2018-02-14T06:06:24.609Z,17.43
2018-02-14T06:08:52.295Z,17.00
2018-02-14T06:11:19.911Z,13.03
2018-02-14T06:13:47.519Z,19.57
2018-02-14T06:16:15.156Z,19.53
2018-02-14T06:18:42.768Z,19.93
2018-02-14T06:21:10.372Z,22.90
2018-02-14T06:23:38.095Z,27.00
2018-02-14T06:26:05.810Z,17.47
2018-02-14T06:28:33.502Z,18.90
2018-02-14T06:31:01.207Z,17.63
2018-02-14T06:33:28.829Z,17.17
2018-02-14T06:35:56.410Z,24.50
2018-02-14T06:38:24.023Z,20.23
2018-02-14T06:40:51.623Z,22.03
2018-02-14T06:43:19.234Z,18.67
2018-02-14T06:45:46.952Z,17.10
2018-02-14T06:48:14.556Z,24.43
2018-02-14T06:50:42.230Z,18.03
2018-02-14T06:53:09.927Z,22.03
2018-02-14T06:55:37.619Z,18.60
2018-02-14T06:58:05.347Z,23.27
2018-02-14T07:00:33.058Z,19.17
2018-02-14T07:03:00.705Z,22.17
2018-02-14T07:05:28.421Z,23.70
2018-02-14T07:07:56.067Z,28.03
2018-02-14T07:10:23.825Z,28.83
2018-02-14T07:12:51.537Z,24.40
2018-02-14T07:15:19.208Z,23.07
2018-02-14T07:17:46.826Z,22.67
2018-02-14T07:20:14.532Z,24.10
2018-02-14T07:22:42.156Z,22.47
2018-02-14T07:25:09.771Z,21.77
2018-02-14T07:27:37.679Z,20.67
2018-02-14T07:30:05.407Z,23.27
2018-02-14T07:32:33.206Z,17.37
2018-02-14T07:35:00.846Z,26.93
2018-02-14T07:37:28.517Z,17.70
2018-02-14T07:39:56.190Z,18.50
2018-02-14T07:42:23.790Z,21.00
2018-02-14T07:44:52.229Z,27.13
2018-02-14T07:47:21.264Z,19.80
2018-02-14T07:49:49.102Z,23.13
2018-02-14T07:52:16.803Z,20.60
2018-02-14T07:54:44.543Z,18.83
2018-02-14T07:57:12.226Z,21.23
2018-02-14T07:59:39.927Z,17.47
2018-02-14T08:02:07.636Z,22.43
2018-02-14T08:04:35.689Z,20.43
2018-02-14T08:07:03.489Z,20.93
2018-02-14T08:09:31.174Z,25.27
2018-02-14T08:11:58.954Z,20.77
2018-02-14T08:14:26.941Z,22.00
2018-02-14T08:16:56.395Z,20.87
2018-02-14T08:19:28.793Z,25.90
2018-02-14T08:22:01.264Z,19.83
2018-02-14T08:24:29.889Z,19.97
2018-02-14T08:27:01.773Z,14.87
2018-02-14T08:29:30.395Z,19.43
2018-02-14T08:31:58.345Z,23.30
2018-02-14T08:34:26.144Z,19.80
2018-02-14T08:36:59.041Z,23.20
2018-02-14T08:39:29.044Z,18.80
2018-02-14T08:41:57.717Z,21.97
2018-02-14T08:44:30.720Z,24.03
2018-02-14T08:47:00.096Z,21.50
2018-02-14T08:49:27.833Z,20.50
2018-02-14T08:51:56.658Z,15.30
2018-02-14T08:54:25.830Z,19.23
2018-02-14T08:56:57.547Z,21.80
2018-02-14T08:59:26.313Z,18.20
2018-02-14T09:01:55.433Z,19.33
2018-02-14T09:04:29.407Z,25.90
2018-02-14T09:06:59.083Z,19.80
2018-02-14T09:09:30.882Z,18.53
2018-02-14T09:11:58.936Z,22.67
2018-02-14T09:14:27.363Z,30.67
2018-02-14T09:16:56.969Z,27.30
2018-02-14T09:19:28.903Z,19.77
2018-02-14T09:21:57.617Z,18.53
2018-02-14T09:24:26.493Z,19.63
2018-02-14T09:26:54.772Z,21.13
2018-02-14T09:29:25.482Z,19.63
2018-02-14T09:31:53.441Z,19.37
2018-02-14T09:34:24.904Z,21.00
2018-02-14T09:36:54.175Z,21.90
2018-02-14T09:39:22.122Z,14.43
2018-02-14T09:41:49.951Z,17.47
2018-02-14T09:44:17.723Z,20.20
2018-02-14T09:46:45.433Z,20.60
2018-02-14T09:49:13.480Z,23.53
2018-02-14T09:51:41.200Z,19.33
2018-02-14T09:54:08.836Z,20.40
2018-02-14T09:56:36.695Z,16.77
2018-02-14T09:59:04.357Z,25.33
2018-02-14T10:01:32.041Z,26.20
2018-02-14T10:03:59.678Z,27.87
2018-02-14T10:06:27.347Z,20.30
2018-02-14T10:08:55.053Z,21.13
2018-02-14T10:11:22.724Z,20.93
2018-02-14T10:13:50.399Z,17.47
2018-02-14T10:16:18.610Z,19.77
2018-02-14T10:18:47.490Z,23.47
2018-02-14T10:21:20.280Z,22.33
2018-02-14T10:23:49.480Z,16.53
2018-02-14T10:26:18.078Z,22.10
2018-02-14T10:28:46.817Z,23.93
2018-02-14T10:31:14.437Z,25.53
2018-02-14T10:33:42.397Z,22.00
2018-02-14T10:36:10.501Z,20.43
2018-02-14T10:38:38.517Z,19.73
2018-02-14T10:41:06.357Z,24.17
2018-02-14T10:43:33.959Z,25.60
2018-02-14T10:46:01.705Z,23.33
2018-02-14T10:48:29.443Z,22.67
2018-02-14T10:50:57.311Z,17.50
2018-02-14T10:53:24.975Z,23.63
2018-02-14T10:55:53.362Z,20.60
2018-02-14T10:58:20.983Z,21.00
2018-02-14T11:00:54.308Z,21.83
2018-02-14T11:03:27.673Z,25.47
2018-02-14T11:06:01.520Z,25.93
2018-02-14T11:08:29.207Z,22.23
2018-02-14T11:10:57.065Z,22.03
2018-02-14T11:13:24.780Z,23.67
2018-02-14T11:15:52.394Z,23.50
2018-02-14T11:18:20.024Z,20.20
2018-02-14T11:20:47.658Z,22.93
2018-02-14T11:23:15.248Z,25.37
2018-02-14T11:25:42.884Z,22.63
2018-02-14T11:28:10.491Z,26.73
2018-02-14T11:30:38.170Z,25.13
2018-02-14T11:33:05.828Z,27.73
2018-02-14T11:35:33.501Z,25.60
2018-02-14T11:38:01.105Z,22.10
2018-02-14T11:40:28.687Z,30.30
2018-02-14T11:42:56.376Z,28.57
2018-02-14T11:45:23.980Z,19.40
2018-02-14T11:47:51.605Z,18.67
2018-02-14T11:50:19.194Z,21.73
2018-02-14T11:52:46.792Z,23.43
2018-02-14T11:55:14.454Z,20.63
2018-02-14T11:57:42.170Z,23.93
2018-02-14T12:00:09.776Z,18.37
2018-02-14T12:02:37.418Z,27.63
2018-02-14T12:05:05.016Z,18.63
2018-02-14T12:07:32.639Z,17.57
2018-02-14T12:10:00.323Z,21.43
2018-02-14T12:12:28.587Z,32.17
2018-02-14T12:14:56.436Z,17.97
2018-02-14T12:17:24.619Z,19.13
2018-02-14T12:19:53.128Z,16.77
2018-02-14T12:22:21.037Z,22.00
2018-02-14T12:24:48.733Z,24.27
2018-02-14T12:27:16.376Z,22.13
2018-02-14T12:29:44.186Z,20.43
2018-02-14T12:32:12.047Z,16.00
2018-02-14T12:34:40.226Z,19.17
2018-02-14T12:37:08.460Z,17.53
2018-02-14T12:39:36.207Z,15.50
2018-02-14T12:42:03.870Z,15.60
2018-02-14T12:44:31.636Z,14.27
2018-02-14T12:46:59.445Z,13.80
2018-02-14T12:49:28.104Z,14.93
2018-02-14T12:51:56.783Z,11.63
2018-02-14T12:54:25.125Z,12.23
2018-02-14T12:56:53.090Z,13.57
2018-02-14T12:59:21.163Z,16.17
2018-02-14T13:01:49.122Z,14.20
2018-02-14T13:04:16.762Z,16.50
2018-02-14T13:06:44.877Z,17.00
2018-02-14T13:09:12.761Z,12.40
2018-02-14T13:11:40.378Z,11.60
2018-02-14T13:14:09.036Z,14.70
2018-02-14T13:16:37.130Z,12.83
2018-02-14T13:19:04.951Z,13.13
2018-02-14T13:21:32.647Z,14.30
2018-02-14T13:24:00.296Z,14.50
2018-02-14T13:26:27.928Z,18.97
2018-02-14T13:28:55.839Z,16.20
2018-02-14T13:31:25.233Z,12.63
2018-02-14T13:33:55.175Z,14.93
2018-02-14T13:36:25.086Z,11.87
2018-02-14T13:38:54.382Z,15.23
2018-02-14T13:41:22.982Z,9.00
2018-02-14T13:43:52.356Z,10.87
2018-02-14T13:46:23.448Z,10.70
2018-02-14T13:48:51.962Z,12.10
2018-02-14T13:51:19.633Z,9.63
2018-02-14T13:53:47.402Z,11.73
2018-02-14T13:56:15.917Z,11.90
2018-02-14T13:58:44.131Z,9.13
2018-02-14T14:01:13.321Z,9.40
2018-02-14T14:03:41.044Z,12.70
2018-02-14T14:06:09.486Z,10.07
2018-02-14T14:11:16.247Z,9.20
2018-02-14T14:13:43.896Z,9.53
2018-02-14T14:16:12.749Z,9.90
2018-02-14T14:18:40.393Z,10.97
2018-02-14T14:21:14.710Z,11.17
2018-02-14T14:23:45.777Z,9.00
2018-02-14T14:26:19.870Z,8.30
2018-02-14T14:28:48.913Z,8.13
2018-02-14T14:33:55.547Z,11.83
2018-02-14T14:36:30.204Z,9.70
2018-02-14T14:39:01.154Z,7.93
2018-02-14T14:41:30.812Z,6.67
2018-02-14T14:44:02.298Z,7.17
2018-02-14T14:46:30.865Z,9.67
2018-02-14T14:48:59.492Z,7.67
2018-02-14T14:51:29.865Z,7.40
2018-02-14T14:54:00.749Z,9.07
2018-02-14T14:56:32.108Z,7.77
2018-02-14T14:58:59.917Z,7.57
2018-02-14T15:01:29.282Z,9.83
2018-02-14T15:03:58.487Z,14.83
2018-02-14T15:06:27.557Z,16.50
2018-02-14T15:08:56.035Z,13.70
2018-02-14T15:11:25.101Z,11.50
2018-02-14T15:16:32.854Z,13.43
2018-02-14T15:19:00.504Z,13.63
2018-02-14T15:21:30.570Z,9.83
2018-02-14T15:24:00.455Z,8.30
2018-02-14T15:26:29.170Z,8.47
2018-02-14T15:28:59.700Z,8.90
2018-02-14T15:31:31.035Z,8.77
2018-02-14T15:34:01.591Z,10.37
2018-02-14T15:36:29.213Z,8.67
2018-02-14T15:38:56.908Z,11.27
2018-02-14T15:41:24.533Z,10.70
2018-02-14T15:43:53.758Z,9.10
2018-02-14T15:46:21.578Z,11.40
2018-02-14T15:48:49.315Z,9.37
2018-02-14T15:51:17.030Z,9.10
2018-02-14T15:53:44.704Z,8.60
2018-02-14T15:56:12.411Z,15.80
2018-02-14T15:58:40.505Z,14.10
2018-02-14T16:01:08.186Z,14.50
2018-02-14T16:03:35.827Z,19.73
2018-02-14T16:06:03.476Z,12.13
2018-02-14T16:08:31.136Z,17.50
2018-02-14T16:10:58.794Z,16.30
2018-02-14T16:13:26.399Z,14.73
2018-02-14T16:15:54.015Z,13.03
2018-02-14T16:18:21.619Z,11.43
2018-02-14T16:20:49.235Z,15.40
2018-02-14T16:23:16.870Z,9.90
2018-02-14T16:25:44.520Z,12.50
2018-02-14T16:28:12.175Z,11.00
2018-02-14T16:30:39.880Z,12.40
2018-02-14T16:33:07.511Z,18.10
2018-02-14T16:35:35.155Z,13.67
2018-02-14T16:38:02.824Z,11.73
2018-02-14T16:40:30.469Z,17.60
2018-02-14T16:42:58.167Z,15.47
2018-02-14T16:45:25.925Z,15.13
2018-02-14T16:47:53.516Z,12.57
2018-02-14T16:50:21.148Z,12.00
2018-02-14T18:00:42.164Z,20.90
2018-02-14T18:03:09.762Z,22.07
2018-02-14T18:05:37.378Z,19.07
2018-02-14T18:08:05.764Z,22.13
2018-02-14T18:10:33.364Z,21.50
2018-02-14T18:13:01.304Z,22.47
2018-02-14T18:15:28.965Z,29.07
2018-02-14T18:17:56.582Z,22.13
2018-02-14T18:20:24.173Z,20.57
2018-02-14T18:22:51.876Z,26.10
2018-02-14T18:25:19.564Z,19.33
2018-02-14T18:27:47.987Z,34.33
2018-02-14T18:30:15.612Z,22.70
2018-02-14T18:32:43.330Z,24.80
2018-02-14T18:35:10.938Z,23.23
2018-02-14T18:37:38.610Z,20.50
2018-02-14T18:40:06.359Z,18.33
2018-02-14T18:42:34.000Z,25.37
2018-02-14T18:45:02.469Z,22.33
2018-02-14T18:47:30.134Z,23.23
2018-02-14T18:49:57.879Z,25.90
2018-02-14T18:52:25.603Z,20.83
2018-02-14T18:54:54.209Z,23.57
2018-02-14T18:57:22.596Z,19.87
2018-02-14T18:59:50.994Z,20.73
2018-02-14T19:02:19.376Z,21.77
2018-02-14T19:04:46.981Z,21.53
2018-02-14T19:07:14.752Z,18.60
2018-02-14T19:09:43.260Z,25.70
2018-02-14T19:12:11.418Z,20.80
2018-02-14T19:14:39.008Z,22.07
2018-02-14T19:17:06.827Z,20.27
2018-02-14T19:19:34.448Z,19.70
2018-02-14T19:22:02.065Z,20.03
2018-02-14T19:24:29.936Z,17.10
2018-02-14T19:26:59.460Z,16.33
2018-02-14T19:29:27.064Z,20.07
2018-02-14T19:31:54.969Z,18.50
2018-02-14T19:34:22.920Z,13.53
2018-02-14T19:36:50.641Z,20.10
2018-02-14T19:39:18.559Z,21.87
2018-02-14T19:41:46.220Z,13.87
2018-02-14T19:44:14.455Z,15.70
2018-02-14T19:46:42.983Z,15.10
2018-02-14T19:49:10.610Z,17.17
2018-02-14T19:51:38.972Z,17.07
2018-02-14T19:54:06.601Z,26.40
2018-02-14T19:56:34.566Z,23.33
2018-02-14T19:59:02.510Z,22.20
2018-02-14T20:01:30.202Z,19.63
2018-02-14T20:03:57.862Z,19.60
2018-02-14T20:06:25.461Z,16.27
2018-02-14T20:08:53.079Z,18.20
2018-02-14T20:11:20.667Z,21.80
2018-02-14T20:13:48.276Z,20.10
2018-02-14T20:16:15.902Z,18.93
2018-02-14T20:18:43.562Z,27.93
2018-02-14T20:21:12.999Z,19.83
2018-02-14T20:23:41.002Z,18.37
2018-02-14T20:26:08.676Z,21.37
2018-02-14T20:28:36.592Z,20.17
2018-02-14T20:31:04.188Z,17.90
2018-02-14T20:33:31.795Z,21.73
2018-02-14T20:36:00.150Z,18.93
2018-02-14T20:38:27.746Z,21.80
2018-02-14T20:40:55.352Z,19.97
2018-02-14T20:43:23.017Z,23.33
2018-02-14T20:45:50.624Z,22.73
2018-02-14T20:48:18.263Z,28.27
2018-02-14T20:50:45.889Z,21.10
2018-02-14T20:53:13.516Z,18.80
2018-02-14T20:55:41.108Z,26.20
2018-02-14T20:58:08.711Z,20.60
2018-02-14T21:00:36.321Z,18.70
2018-02-14T21:03:04.034Z,19.93
2018-02-14T21:05:31.649Z,24.23
2018-02-14T21:07:59.285Z,20.50
2018-02-14T21:10:26.862Z,23.17
2018-02-14T21:12:54.555Z,18.23
2018-02-14T21:15:22.939Z,22.83
2018-02-14T21:17:50.610Z,24.53
2018-02-14T21:20:18.217Z,22.03
2018-02-14T21:22:45.834Z,22.13
2018-02-14T21:25:13.526Z,21.13
2018-02-14T21:27:41.154Z,20.37
2018-02-14T21:30:08.749Z,20.57
2018-02-14T21:32:36.328Z,18.93
2018-02-14T21:35:03.941Z,26.43
2018-02-14T21:37:31.567Z,23.80
2018-02-14T21:39:59.195Z,20.80
2018-02-14T21:42:26.786Z,21.33
2018-02-14T21:44:54.470Z,21.73
2018-02-14T21:47:22.147Z,23.10
2018-02-14T21:49:49.778Z,20.70
2018-02-14T21:52:17.465Z,22.40
2018-02-14T21:54:45.106Z,23.50
2018-02-14T21:57:13.528Z,25.03
2018-02-14T21:59:41.134Z,23.27
2018-02-14T22:02:08.725Z,23.50
2018-02-14T22:04:36.583Z,21.70
2018-02-14T22:07:04.229Z,24.43
2018-02-14T22:09:31.857Z,21.47
2018-02-14T22:12:00.286Z,22.83
2018-02-14T22:14:27.935Z,28.87
2018-02-14T22:16:55.569Z,30.57
2018-02-14T22:19:23.174Z,25.33
2018-02-14T22:21:51.510Z,24.13
2018-02-14T22:24:19.186Z,26.33
2018-02-14T22:26:46.811Z,20.80
2018-02-14T22:29:14.403Z,21.80
2018-02-14T22:31:41.991Z,25.43
2018-02-14T22:34:09.588Z,25.37
2018-02-14T22:36:37.177Z,23.50
2018-02-14T22:39:04.849Z,27.13
2018-02-14T22:41:33.284Z,24.70
2018-02-14T22:44:00.928Z,22.77
2018-02-14T22:46:29.268Z,26.20
2018-02-14T22:48:56.892Z,23.70
2018-02-14T22:51:24.489Z,26.00
2018-02-14T22:53:52.071Z,24.83
2018-02-14T22:56:19.686Z,26.93
2018-02-14T22:58:48.134Z,21.33
2018-02-14T23:01:15.767Z,23.90
2018-02-14T23:03:44.123Z,24.63
2018-02-14T23:06:11.723Z,27.63
2018-02-14T23:08:40.084Z,26.30
2018-02-14T23:11:07.716Z,25.30
2018-02-14T23:13:35.405Z,22.90
2018-02-14T23:16:03.058Z,26.83
2018-02-14T23:18:30.655Z,22.83
2018-02-14T23:20:58.259Z,17.73
2018-02-14T23:23:25.844Z,22.23
2018-02-14T23:25:53.442Z,21.80
2018-02-14T23:28:21.024Z,21.73
2018-02-14T23:30:48.626Z,22.10
2018-02-14T23:33:16.279Z,21.43
2018-02-14T23:35:43.894Z,28.50
2018-02-14T23:38:12.272Z,28.40
2018-02-14T23:40:40.707Z,31.23
2018-02-14T23:43:08.293Z,23.47
2018-02-14T23:45:35.980Z,21.97
2018-02-14T23:48:03.685Z,27.00
2018-02-14T23:50:31.442Z,25.13
2018-02-14T23:52:59.163Z,17.37
2018-02-14T23:55:26.855Z,20.03
2018-02-14T23:57:54.534Z,22.00
